Time;durP1;ratioP1;P1;durP2;ratioP2;P2;SDS_P1;SDS_P2;PMS_P1;PMS_P2;Temp;Humidity;BMP_temperature;BMP_pressure;BME280_temperature;BME280_humidity;BME280_pressure;Samples;Min_cycle;Max_cycle;Signal;HPM_P1;HPM_P2
2021/06/29 00:01:12;;;;;;;1.58;1.30;;;26.20;86.10;;;;;;5012752;28;20068;-81
2021/06/29 00:03:38;;;;;;;0.90;0.90;;;26.10;85.80;;;;;;5021499;28;20509;-81
2021/06/29 00:06:04;;;;;;;0.95;0.93;;;26.10;85.50;;;;;;5005806;28;20059;-78
2021/06/29 00:08:29;;;;;;;0.70;0.70;;;26.10;85.90;;;;;;5024583;28;20029;-79
2021/06/29 00:10:55;;;;;;;4.72;1.17;;;25.90;85.90;;;;;;5025679;28;20074;-79
2021/06/29 00:13:22;;;;;;;1.42;1.20;;;25.90;86.30;;;;;;5023184;28;20030;-81
2021/06/29 00:15:49;;;;;;;0.60;0.60;;;25.80;86.10;;;;;;5025193;28;20086;-79
2021/06/29 00:18:15;;;;;;;1.05;1.02;;;25.80;86.10;;;;;;5021609;28;20054;-78
2021/06/29 00:20:40;;;;;;;0.70;0.70;;;25.90;85.80;;;;;;5023620;28;20025;-79
2021/06/29 00:23:06;;;;;;;1.73;1.10;;;25.90;85.40;;;;;;5022156;28;20501;-79
2021/06/29 00:25:32;;;;;;;1.60;1.27;;;25.80;86.00;;;;;;5024706;28;20021;-82
2021/06/29 00:27:58;;;;;;;1.75;1.55;;;25.80;86.00;;;;;;5031209;28;20022;-80
2021/06/29 00:30:25;;;;;;;1.08;1.00;;;25.70;85.30;;;;;;5033549;28;20247;-79
2021/06/29 00:32:51;;;;;;;0.75;0.73;;;25.90;86.30;;;;;;5030204;28;20107;-80
2021/06/29 00:35:16;;;;;;;1.00;0.98;;;25.90;85.20;;;;;;5022569;28;20486;-80
2021/06/29 00:37:45;;;;;;;1.17;1.08;;;25.70;85.00;;;;;;4998358;28;20034;-81
2021/06/29 00:40:12;;;;;;;0.60;0.60;;;25.80;86.00;;;;;;5013758;28;20409;-80
2021/06/29 00:42:39;;;;;;;0.80;0.80;;;25.90;86.10;;;;;;5013283;28;20504;-81
2021/06/29 00:45:06;;;;;;;0.80;0.80;;;25.80;85.60;;;;;;5013439;28;20042;-82
2021/06/29 00:47:32;;;;;;;0.73;0.73;;;25.80;86.30;;;;;;5013446;28;20040;-81
2021/06/29 00:49:58;;;;;;;0.65;0.65;;;25.60;85.50;;;;;;5013250;28;20025;-80
2021/06/29 00:52:24;;;;;;;0.88;0.88;;;25.60;86.70;;;;;;4995840;28;20018;-81
2021/06/29 00:54:50;;;;;;;0.80;0.80;;;25.60;86.50;;;;;;5013389;28;20029;-80
2021/06/29 00:57:16;;;;;;;0.93;0.93;;;25.70;86.40;;;;;;5013215;28;20104;-80
2021/06/29 00:59:42;;;;;;;1.20;1.13;;;25.60;86.60;;;;;;5012523;28;20053;-82
2021/06/29 01:02:09;;;;;;;3.22;1.65;;;25.50;86.90;;;;;;5013189;28;20030;-83
2021/06/29 01:04:37;;;;;;;0.90;0.90;;;25.60;86.50;;;;;;5013086;28;20401;-82
2021/06/29 01:07:05;;;;;;;0.70;0.70;;;25.70;86.50;;;;;;5012924;28;20109;-82
2021/06/29 01:09:34;;;;;;;0.98;0.90;;;25.70;86.30;;;;;;4995579;28;20041;-82
2021/06/29 01:12:00;;;;;;;0.75;0.73;;;25.70;86.00;;;;;;5047708;28;20388;-80
2021/06/29 01:14:25;;;;;;;0.75;0.75;;;25.60;86.40;;;;;;5034980;28;20472;-77
2021/06/29 01:16:51;;;;;;;0.80;0.80;;;25.60;86.30;;;;;;5052398;28;20489;-78
2021/06/29 01:19:22;;;;;;;1.55;1.27;;;25.60;86.80;;;;;;5052757;28;20473;-78
2021/06/29 01:21:50;;;;;;;0.70;0.70;;;25.70;86.40;;;;;;5034455;28;20036;-79
2021/06/29 01:24:23;;;;;;;1.23;1.13;;;25.60;87.40;;;;;;5052528;28;20033;-79
2021/06/29 01:32:13;;;;;;;1.25;1.15;;;25.40;88.00;;;;;;5052432;28;20079;-79
2021/06/29 01:34:39;;;;;;;0.70;0.70;;;25.10;89.00;;;;;;5052264;28;20381;-81
2021/06/29 01:37:05;;;;;;;2.78;2.53;;;25.10;89.10;;;;;;5052526;28;20573;-79
2021/06/29 01:39:30;;;;;;;4.32;1.95;;;25.20;88.80;;;;;;5052100;28;20473;-81
2021/06/29 01:41:56;;;;;;;0.80;0.80;;;25.10;88.90;;;;;;5051829;28;20017;-81
2021/06/29 01:44:26;;;;;;;0.77;0.77;;;25.00;89.10;;;;;;5034340;28;20041;-82
2021/06/29 01:46:54;;;;;;;1.90;1.47;;;25.10;89.20;;;;;;5051579;28;20365;-82
2021/06/29 01:49:27;;;;;;;3.53;2.45;;;25.10;88.70;;;;;;5051830;28;20081;-83
2021/06/29 01:51:54;;;;;;;3.60;2.75;;;25.20;88.90;;;;;;5051745;28;20116;-81
2021/06/29 01:54:21;;;;;;;0.93;0.93;;;25.00;88.80;;;;;;5033376;28;20021;-82
2021/06/29 02:07:54;;;;;;;0.70;0.70;;;25.00;88.50;;;;;;5011504;28;20209;-82
2021/06/29 02:10:37;;;;;;;1.23;1.13;;;25.10;88.40;;;;;;5013987;28;20417;-83
2021/06/29 02:13:03;;;;;;;2.25;2.05;;;25.00;88.70;;;;;;5031170;28;20097;-80
2021/06/29 02:15:29;;;;;;;1.42;1.33;;;25.00;88.80;;;;;;5031913;28;20635;-80
2021/06/29 02:17:55;;;;;;;1.27;1.17;;;25.00;88.90;;;;;;5031270;28;20034;-80
2021/06/29 02:20:21;;;;;;;1.33;1.23;;;24.80;89.50;;;;;;5031675;28;20044;-82
2021/06/29 02:22:46;;;;;;;1.17;1.08;;;25.00;89.70;;;;;;5031205;28;20381;-82
2021/06/29 02:25:16;;;;;;;0.70;0.70;;;24.90;89.80;;;;;;5031655;28;20060;-84
2021/06/29 02:27:41;;;;;;;1.83;1.20;;;25.00;90.00;;;;;;5013423;28;20055;-85
2021/06/29 02:30:08;;;;;;;1.17;1.08;;;25.00;89.40;;;;;;5013881;28;20487;-85
2021/06/29 02:40:20;;;;;;;1.00;1.00;;;24.90;90.20;;;;;;5825415;23;20049;-78
2021/06/29 02:42:46;;;;;;;0.85;0.85;;;24.90;90.00;;;;;;5011447;28;20092;-80
2021/06/29 02:45:17;;;;;;;0.80;0.80;;;24.90;90.30;;;;;;5011620;28;20374;-79
2021/06/29 02:47:43;;;;;;;3.20;2.30;;;24.80;90.30;;;;;;5010844;28;20425;-79
2021/06/29 02:50:10;;;;;;;1.77;1.25;;;24.60;90.80;;;;;;5011760;28;20022;-82
2021/06/29 02:52:36;;;;;;;0.82;0.82;;;24.50;91.00;;;;;;5011272;28;20029;-81
2021/06/29 02:55:06;;;;;;;2.10;1.90;;;24.50;91.10;;;;;;5011353;28;20037;-83
2021/06/29 02:57:32;;;;;;;3.08;2.42;;;24.50;91.10;;;;;;4993477;28;20064;-83
2021/06/29 02:59:57;;;;;;;0.70;0.70;;;24.40;91.20;;;;;;5011398;28;20104;-80
2021/06/29 03:02:23;;;;;;;1.55;1.45;;;24.50;91.00;;;;;;4993633;28;20109;-85
2021/06/29 03:04:49;;;;;;;1.73;1.58;;;24.70;90.70;;;;;;4993538;28;20513;-81
2021/06/29 03:07:15;;;;;;;1.10;1.00;;;24.80;90.40;;;;;;5010961;28;20026;-79
2021/06/29 03:09:40;;;;;;;1.10;0.93;;;24.80;90.30;;;;;;5011050;28;20544;-80
2021/06/29 03:12:07;;;;;;;11.35;1.42;;;24.80;90.40;;;;;;5008694;28;20057;-86
2021/06/29 03:14:35;;;;;;;0.80;0.80;;;24.60;90.60;;;;;;5026583;28;20022;-85
2021/06/29 03:17:03;;;;;;;1.48;1.38;;;24.50;90.90;;;;;;5011485;28;20030;-85
2021/06/29 03:19:32;;;;;;;2.55;2.28;;;24.40;90.90;;;;;;4993289;28;20030;-87
2021/06/29 03:21:58;;;;;;;1.38;1.27;;;24.30;91.10;;;;;;4994311;28;20497;-84
2021/06/29 03:24:24;;;;;;;1.77;1.30;;;24.30;91.30;;;;;;4997619;28;20464;-86
2021/06/29 03:26:50;;;;;;;0.80;0.80;;;24.30;91.20;;;;;;5015332;28;20405;-87
2021/06/29 03:29:16;;;;;;;1.85;1.27;;;24.30;91.20;;;;;;5015293;28;20497;-84
2021/06/29 04:52:02;;;;;;;0.90;0.90;;;24.60;91.00;;;;;;4971452;28;20466;-84
2021/06/29 04:54:57;;;;;;;1.52;1.42;;;24.50;91.20;;;;;;5033230;28;20500;-84
2021/06/29 04:57:39;;;;;;;;;;;;;;;;;;;;;
2021/06/29 05:03:31;;;;;;;1.30;1.20;;;24.80;91.20;;;;;;4978821;28;20042;-82
2021/06/29 05:05:57;;;;;;;2.97;1.88;;;24.80;91.10;;;;;;5015424;28;20034;-79
2021/06/29 05:08:26;;;;;;;3.25;1.77;;;24.90;91.20;;;;;;5032751;28;20026;-85
2021/06/29 05:10:58;;;;;;;1.58;1.15;;;24.90;91.30;;;;;;5026565;28;20096;-89
2021/06/29 05:13:24;;;;;;;1.70;1.35;;;24.70;91.40;;;;;;5012137;28;20030;-82
2021/06/29 05:15:49;;;;;;;1.10;1.05;;;24.70;91.40;;;;;;4995522;28;20099;-82
2021/06/29 05:18:18;;;;;;;1.75;1.17;;;24.80;91.30;;;;;;5012795;28;20018;-79
2021/06/29 05:20:44;;;;;;;0.80;0.80;;;25.00;90.90;;;;;;5012967;28;20029;-82
2021/06/29 05:23:17;;;;;;;1.95;1.77;;;25.10;90.70;;;;;;5012942;28;20030;-84
2021/06/29 05:25:43;;;;;;;1.15;1.05;;;25.10;90.40;;;;;;5012665;28;20054;-85
2021/06/29 05:28:08;;;;;;;2.60;1.73;;;25.10;90.30;;;;;;5012184;28;20062;-83
2021/06/29 05:30:34;;;;;;;0.77;0.77;;;25.00;90.50;;;;;;5012553;28;20056;-83
2021/06/29 05:33:00;;;;;;;0.73;0.73;;;25.10;90.50;;;;;;5012008;28;20508;-80
2021/06/29 05:35:26;;;;;;;1.30;1.20;;;25.10;90.60;;;;;;4995140;28;20136;-80
2021/06/29 05:37:52;;;;;;;1.17;0.82;;;25.20;90.80;;;;;;4994448;28;20022;-84
2021/06/29 05:48:51;;;;;;;;;;;;;;;;;;;;;
2021/06/29 06:07:41;;;;;;;0.70;0.70;;;25.80;90.00;;;;;;5012475;28;20049;-81
2021/06/29 06:14:03;;;;;;;0.75;0.75;;;25.90;89.90;;;;;;4951878;28;20057;-83
2021/06/29 06:17:02;;;;;;;1.02;0.98;;;25.90;89.80;;;;;;4993940;28;20108;-81
2021/06/29 06:19:41;;;;;;;1.38;1.17;;;26.10;88.80;;;;;;5011767;28;20374;-82
2021/06/29 06:22:07;;;;;;;4.13;1.63;;;26.20;89.20;;;;;;4994096;28;20110;-81
2021/06/29 06:24:33;;;;;;;2.00;0.98;;;26.20;88.50;;;;;;4993037;28;20492;-83
2021/06/29 06:50:40;;;;;;;1.15;1.05;;;26.70;85.50;;;;;;5030131;23;20054;-82
2021/06/29 06:53:55;;;;;;;2.08;1.85;;;26.70;85.30;;;;;;5011143;28;20068;-82
2021/06/29 06:57:12;;;;;;;0.80;0.80;;;26.70;84.40;;;;;;4993298;28;20030;-86
2021/06/29 06:59:39;;;;;;;3.42;1.27;;;26.80;84.00;;;;;;5011082;28;20033;-81
2021/06/29 07:02:05;;;;;;;1.20;1.02;;;27.10;84.30;;;;;;4993401;28;20037;-81
2021/06/29 07:04:31;;;;;;;0.77;0.77;;;27.20;83.40;;;;;;4993507;28;20042;-80
2021/06/29 07:06:57;;;;;;;1.70;1.25;;;27.20;83.70;;;;;;5010854;28;20022;-80
2021/06/29 07:09:23;;;;;;;1.42;1.33;;;27.20;83.30;;;;;;5008272;28;20109;-78
2021/06/29 07:11:49;;;;;;;0.80;0.80;;;27.00;83.70;;;;;;4999137;28;20105;-78
2021/06/29 07:14:16;;;;;;;0.60;0.60;;;27.20;84.30;;;;;;4991599;28;20022;-81
2021/06/29 07:16:42;;;;;;;0.90;0.85;;;27.40;83.90;;;;;;4991171;28;20030;-81
2021/06/29 07:19:08;;;;;;;8.00;3.33;;;27.40;83.60;;;;;;5006925;28;20448;-78
2021/06/29 07:21:34;;;;;;;3.70;3.15;;;27.50;83.90;;;;;;5011103;28;20377;-81
2021/06/29 07:24:00;;;;;;;2.20;2.00;;;27.50;83.70;;;;;;5010923;28;20482;-79
2021/06/29 07:26:26;;;;;;;4.82;3.28;;;27.50;85.20;;;;;;5010831;28;20096;-79
2021/06/29 07:28:52;;;;;;;3.38;2.38;;;27.60;85.30;;;;;;5009844;28;20028;-80
2021/06/29 07:31:18;;;;;;;2.53;2.05;;;27.70;86.00;;;;;;5002129;28;20026;-80
2021/06/29 07:33:46;;;;;;;4.47;2.35;;;27.60;86.20;;;;;;4999467;28;20027;-81
2021/06/29 07:36:12;;;;;;;3.03;2.03;;;27.60;85.80;;;;;;5000470;28;20021;-80
2021/06/29 07:38:39;;;;;;;2.78;1.55;;;27.70;86.50;;;;;;5001876;28;20026;-79
2021/06/29 07:41:05;;;;;;;1.60;1.50;;;28.00;86.60;;;;;;4999886;28;20029;-79
2021/06/29 07:43:32;;;;;;;0.68;0.68;;;28.10;86.10;;;;;;5001798;28;20026;-80
2021/06/29 07:45:58;;;;;;;0.50;0.50;;;27.90;86.20;;;;;;4982162;28;20038;-78
2021/06/29 07:48:23;;;;;;;1.48;1.38;;;28.10;87.20;;;;;;5000895;28;20030;-78
2021/06/29 07:50:49;;;;;;;2.83;2.58;;;28.20;86.60;;;;;;4983584;28;20431;-81
2021/06/29 07:53:15;;;;;;;1.17;1.13;;;28.10;87.50;;;;;;5001682;28;20025;-79
2021/06/29 07:55:41;;;;;;;1.35;1.08;;;28.10;87.00;;;;;;4999294;28;20480;-78
2021/06/29 07:58:06;;;;;;;1.95;1.60;;;28.20;86.80;;;;;;4996229;28;20026;-78
2021/06/29 08:00:35;;;;;;;1.02;0.75;;;28.30;87.00;;;;;;4997506;28;20026;-78
2021/06/29 08:03:01;;;;;;;0.95;0.95;;;28.30;86.80;;;;;;4999869;28;20031;-79
2021/06/29 08:05:26;;;;;;;0.80;0.80;;;28.30;86.30;;;;;;4997247;28;20034;-79
2021/06/29 08:07:53;;;;;;;1.42;1.15;;;28.20;87.10;;;;;;4998550;28;20018;-78
2021/06/29 08:10:19;;;;;;;0.95;0.85;;;28.20;87.60;;;;;;5003752;28;20030;-78
2021/06/29 08:12:45;;;;;;;0.85;0.85;;;28.40;88.10;;;;;;4985521;28;20022;-78
2021/06/29 08:15:15;;;;;;;0.60;0.60;;;28.60;88.10;;;;;;5001276;28;20097;-80
2021/06/29 08:17:43;;;;;;;1.45;1.33;;;28.70;87.60;;;;;;4994665;28;20116;-79
2021/06/29 08:20:10;;;;;;;2.30;1.83;;;28.70;87.60;;;;;;4981210;28;20033;-79
2021/06/29 08:22:36;;;;;;;3.00;2.67;;;28.50;87.20;;;;;;5013653;28;20032;-77
2021/06/29 08:25:05;;;;;;;5.25;2.45;;;28.60;87.90;;;;;;4996088;28;20038;-78
2021/06/29 08:27:31;;;;;;;1.85;1.55;;;28.80;87.70;;;;;;5007739;28;20466;-79
2021/06/29 08:29:58;;;;;;;0.95;0.90;;;28.90;87.30;;;;;;4995707;28;20036;-75
2021/06/29 08:32:25;;;;;;;0.82;0.82;;;29.00;87.40;;;;;;5013929;28;20022;-79
2021/06/29 08:34:53;;;;;;;1.30;1.00;;;29.10;87.60;;;;;;5013932;28;20097;-77
2021/06/29 08:37:20;;;;;;;0.73;0.70;;;29.10;87.00;;;;;;4995753;28;20022;-79
2021/06/29 08:39:46;;;;;;;0.95;0.95;;;29.20;87.40;;;;;;5013579;28;20030;-78
2021/06/29 08:42:13;;;;;;;0.50;0.50;;;29.10;86.70;;;;;;5013388;28;20355;-78
2021/06/29 08:44:40;;;;;;;0.40;0.40;;;29.10;87.60;;;;;;4995789;28;20139;-78
2021/06/29 08:47:10;;;;;;;4.95;3.58;;;29.20;86.60;;;;;;4995754;28;20102;-78
2021/06/29 08:49:36;;;;;;;2.20;1.50;;;29.20;86.40;;;;;;5012872;28;20382;-78
2021/06/29 08:52:07;;;;;;;1.55;1.45;;;29.30;86.70;;;;;;5013223;28;20022;-79
2021/06/29 08:54:33;;;;;;;1.08;0.82;;;29.40;86.70;;;;;;5013384;28;20030;-78
2021/06/29 08:56:59;;;;;;;0.80;0.70;;;29.50;86.50;;;;;;4995511;28;20035;-78
2021/06/29 08:59:26;;;;;;;1.30;1.20;;;29.50;86.00;;;;;;5012937;28;20026;-80
2021/06/29 09:01:51;;;;;;;1.20;0.93;;;29.50;85.90;;;;;;4995445;28;20022;-80
2021/06/29 09:04:51;;;;;;;1.52;1.42;;;29.50;84.40;;;;;;5012954;28;20040;-80
2021/06/29 09:07:18;;;;;;;0.50;0.50;;;29.60;85.40;;;;;;5013085;28;20397;-80
2021/06/29 09:09:55;;;;;;;1.30;1.20;;;29.90;85.10;;;;;;5012658;28;20393;-79
2021/06/29 09:12:41;;;;;;;1.15;0.93;;;30.00;83.90;;;;;;5025486;28;20025;-82
2021/06/29 09:15:27;;;;;;;1.02;0.80;;;30.00;83.30;;;;;;5032448;28;20025;-79
2021/06/29 09:18:07;;;;;;;4.95;2.05;;;30.10;83.00;;;;;;5032484;28;20037;-81
2021/06/29 09:20:39;;;;;;;0.50;0.50;;;30.30;84.00;;;;;;5032396;28;20366;-81
2021/06/29 09:23:14;;;;;;;0.52;0.52;;;30.40;82.80;;;;;;5032014;28;20029;-79
2021/06/29 09:25:43;;;;;;;0.35;0.35;;;30.60;81.90;;;;;;5032434;28;20037;-78
2021/06/29 09:28:14;;;;;;;0.30;0.30;;;30.70;81.20;;;;;;5032389;28;20013;-78
2021/06/29 09:30:46;;;;;;;0.55;0.55;;;30.90;80.20;;;;;;5032327;28;20518;-76
2021/06/29 09:33:14;;;;;;;3.03;1.63;;;30.90;79.40;;;;;;5032012;28;20425;-75
2021/06/29 09:35:41;;;;;;;0.45;0.43;;;30.90;77.20;;;;;;5032463;28;20026;-77
2021/06/29 09:38:09;;;;;;;1.67;1.42;;;30.90;76.00;;;;;;5032237;28;20029;-78
2021/06/29 09:40:36;;;;;;;1.38;1.27;;;31.10;75.70;;;;;;5032256;28;20021;-79
2021/06/29 09:43:08;;;;;;;2.13;1.20;;;31.20;75.40;;;;;;5031728;28;20033;-78
2021/06/29 09:45:36;;;;;;;5.82;0.90;;;31.40;77.60;;;;;;5032403;28;20056;-81
2021/06/29 09:48:07;;;;;;;0.88;0.82;;;31.70;78.00;;;;;;5032077;28;20389;-82
2021/06/29 09:50:48;;;;;;;0.38;0.38;;;31.70;76.20;;;;;;5032035;28;20421;-82
2021/06/29 09:53:16;;;;;;;0.68;0.63;;;31.50;76.00;;;;;;5031184;28;20064;-82
2021/06/29 09:55:47;;;;;;;0.45;0.45;;;31.70;77.10;;;;;;5031927;28;20542;-87
2021/06/29 09:58:14;;;;;;;3.30;2.42;;;31.60;77.50;;;;;;5031502;28;20063;-82
2021/06/29 10:00:46;;;;;;;3.05;1.67;;;31.40;77.00;;;;;;5014222;28;20092;-83
2021/06/29 10:03:33;;;;;;;1.48;1.20;;;31.50;76.20;;;;;;5031290;28;20021;-81
2021/06/29 10:06:03;;;;;;;1.20;0.75;;;31.50;76.60;;;;;;5031630;28;20037;-82
2021/06/29 10:08:30;;;;;;;;;;;31.90;76.40;;;;;;5032527;28;20377;-87
2021/06/29 10:11:22;;;;;;;0.35;0.35;;;32.10;75.80;;;;;;5013800;28;19959;-82
2021/06/29 10:13:52;;;;;;;2.08;1.75;;;32.50;74.20;;;;;;4992471;28;20022;-87
2021/06/29 10:16:22;;;;;;;0.38;0.38;;;32.30;74.00;;;;;;4974606;28;20033;-87
2021/06/29 10:21:31;;;;;;;0.90;0.85;;;32.30;75.10;;;;;;4992369;28;20022;-81
2021/06/29 10:24:03;;;;;;;0.30;0.30;;;32.70;74.70;;;;;;4990577;28;20035;-81
2021/06/29 10:26:30;;;;;;;1.05;0.93;;;32.50;73.80;;;;;;4992079;28;20040;-84
2021/06/29 10:28:57;;;;;;;11.85;1.45;;;32.90;72.10;;;;;;4973873;28;20069;-81
2021/06/29 10:31:26;;;;;;;1.05;0.60;;;32.90;69.30;;;;;;4974235;28;20649;-84
2021/06/29 10:33:54;;;;;;;0.50;0.43;;;32.90;68.00;;;;;;4991923;28;20034;-85
2021/06/29 10:36:22;;;;;;;0.55;0.55;;;32.90;67.80;;;;;;4994410;28;20018;-84
2021/06/29 10:38:49;;;;;;;2.47;2.15;;;32.80;68.40;;;;;;4993741;28;20041;-85
2021/06/29 10:41:16;;;;;;;3.60;2.20;;;32.90;68.10;;;;;;5011754;28;20045;-83
2021/06/29 10:43:43;;;;;;;1.17;1.08;;;33.00;68.80;;;;;;4993374;28;20029;-85
2021/06/29 10:46:42;;;;;;;1.75;1.25;;;32.90;68.90;;;;;;5011469;28;20477;-85
2021/06/29 10:49:32;;;;;;;3.15;2.28;;;32.70;68.60;;;;;;5011328;28;20064;-83
2021/06/29 10:52:02;;;;;;;3.88;2.72;;;32.60;69.00;;;;;;5011316;28;20034;-83
2021/06/29 10:54:50;;;;;;;3.83;2.10;;;33.00;67.00;;;;;;4993470;28;20030;-82
2021/06/29 10:57:24;;;;;;;0.73;0.50;;;33.00;65.30;;;;;;5011232;28;20026;-85
2021/06/29 10:59:55;;;;;;;5.78;0.95;;;33.40;64.80;;;;;;5011319;28;20026;-81
2021/06/29 11:02:33;;;;;;;0.85;0.63;;;33.70;64.50;;;;;;4994032;28;20026;-81
2021/06/29 11:05:06;;;;;;;0.60;0.60;;;33.80;63.10;;;;;;5011401;28;20030;-90
2021/06/29 11:07:31;;;;;;;1.10;1.00;;;33.50;63.20;;;;;;5012199;28;20026;-84
2021/06/29 11:10:04;;;;;;;1.60;1.48;;;33.60;62.80;;;;;;5011185;28;20029;-86
2021/06/29 11:12:33;;;;;;;0.98;0.75;;;33.80;63.10;;;;;;5012304;28;20038;-81
2021/06/29 11:15:02;;;;;;;0.32;0.32;;;33.90;61.50;;;;;;5011768;28;20025;-86
2021/06/29 11:17:47;;;;;;;0.30;0.30;;;34.00;61.70;;;;;;5010936;28;20465;-83
2021/06/29 11:20:17;;;;;;;2.88;1.23;;;33.90;62.40;;;;;;4993418;28;20368;-82
2021/06/29 11:23:07;;;;;;;1.80;0.85;;;34.30;62.30;;;;;;5010879;28;20410;-80
2021/06/29 11:25:55;;;;;;;0.28;0.28;;;34.20;61.40;;;;;;4993169;28;20034;-84
2021/06/29 11:28:44;;;;;;;0.40;0.40;;;34.30;62.10;;;;;;5010852;28;20390;-82
2021/06/29 11:31:20;;;;;;;13.73;0.80;;;34.30;63.90;;;;;;5003006;28;20551;-85
2021/06/29 11:34:04;;;;;;;0.57;0.57;;;33.80;65.50;;;;;;5010804;28;20049;-86
2021/06/29 11:36:32;;;;;;;1.27;1.00;;;34.20;66.30;;;;;;5011050;28;20026;-84
2021/06/29 11:39:16;;;;;;;1.02;0.93;;;34.50;63.80;;;;;;4992982;28;20026;-86
2021/06/29 11:42:03;;;;;;;1.23;0.63;;;34.40;62.90;;;;;;5010824;28;20026;-81
2021/06/29 11:44:29;;;;;;;11.48;3.42;;;34.10;62.20;;;;;;5013104;28;20050;-80
2021/06/29 11:47:07;;;;;;;1.15;1.05;;;33.90;60.50;;;;;;5014332;28;20073;-82
2021/06/29 11:49:47;;;;;;;0.38;0.38;;;33.90;63.30;;;;;;5014453;28;20448;-80
2021/06/29 11:52:17;;;;;;;0.80;0.60;;;34.10;63.30;;;;;;5014138;28;20038;-81
2021/06/29 11:55:20;;;;;;;0.35;0.35;;;34.30;62.20;;;;;;5005270;28;20028;-83
2021/06/29 11:57:51;;;;;;;1.77;1.55;;;34.30;60.40;;;;;;4995122;28;20030;-83
2021/06/29 12:00:21;;;;;;;0.75;0.75;;;34.40;59.00;;;;;;4995396;28;20030;-80
2021/06/29 12:02:49;;;;;;;1.20;0.90;;;34.80;56.60;;;;;;4994564;28;20054;-81
2021/06/29 12:05:18;;;;;;;0.57;0.57;;;35.10;55.60;;;;;;4977613;28;20046;-82
2021/06/29 12:07:50;;;;;;;1.52;1.20;;;35.10;56.80;;;;;;4994762;28;20038;-83
2021/06/29 12:10:20;;;;;;;0.47;0.45;;;35.20;56.40;;;;;;4994821;28;20117;-79
2021/06/29 12:12:57;;;;;;;0.30;0.30;;;35.20;56.40;;;;;;4999211;28;20032;-80
2021/06/29 12:15:33;;;;;;;0.30;0.30;;;35.50;56.40;;;;;;5015846;28;20053;-81
2021/06/29 12:18:07;;;;;;;22.30;1.60;;;35.50;55.60;;;;;;5015757;28;20371;-82
2021/06/29 12:20:37;;;;;;;2.30;0.43;;;35.50;55.10;;;;;;5016246;28;20492;-82
2021/06/29 12:23:07;;;;;;;0.22;0.22;;;35.60;53.60;;;;;;5033456;28;20025;-84
2021/06/29 12:25:40;;;;;;;0.25;0.25;;;35.40;53.50;;;;;;5016138;28;20056;-80
2021/06/29 12:28:13;;;;;;;1.30;0.77;;;35.00;53.10;;;;;;5015794;28;20056;-79
2021/06/29 12:30:49;;;;;;;0.30;0.30;;;35.20;53.30;;;;;;5033326;28;20033;-80
2021/06/29 12:33:24;;;;;;;0.52;0.32;;;35.20;52.80;;;;;;5033257;28;20030;-80
2021/06/29 12:35:59;;;;;;;0.52;0.52;;;34.80;53.40;;;;;;5033550;28;20032;-81
2021/06/29 12:38:27;;;;;;;1.27;1.17;;;34.50;53.70;;;;;;5015296;28;20472;-79
2021/06/29 12:40:55;;;;;;;2.28;1.42;;;34.70;53.20;;;;;;5015464;28;20041;-77
2021/06/29 12:43:30;;;;;;;2.47;1.33;;;35.10;53.00;;;;;;5033177;28;20072;-81
2021/06/29 12:46:11;;;;;;;0.68;0.55;;;35.20;51.90;;;;;;5032962;28;20034;-81
2021/06/29 12:48:37;;;;;;;0.38;0.38;;;35.20;52.10;;;;;;4990364;28;20046;-79
2021/06/29 12:51:07;;;;;;;1.55;0.98;;;35.50;52.00;;;;;;4978566;28;20029;-81
2021/06/29 12:53:34;;;;;;;1.88;1.35;;;35.80;52.20;;;;;;5010553;28;20390;-75
2021/06/29 12:56:31;;;;;;;2.88;2.28;;;36.10;52.50;;;;;;5012622;28;20069;-79
2021/06/29 12:58:57;;;;;;;1.85;1.23;;;35.90;51.90;;;;;;5011659;28;20184;-77
2021/06/29 13:01:23;;;;;;;1.15;0.68;;;35.30;51.40;;;;;;5010827;28;20151;-81
2021/06/29 13:03:55;;;;;;;2.65;2.17;;;35.30;51.00;;;;;;4994884;28;20044;-77
2021/06/29 13:06:22;;;;;;;1.23;0.82;;;35.20;51.00;;;;;;5013218;28;20036;-77
2021/06/29 13:08:49;;;;;;;2.28;1.70;;;35.30;49.50;;;;;;5012664;28;20410;-78
2021/06/29 13:11:21;;;;;;;3.30;1.85;;;35.30;49.00;;;;;;5012568;28;20105;-78
2021/06/29 13:14:05;;;;;;;2.22;0.82;;;35.60;49.60;;;;;;5030741;28;20416;-81
2021/06/29 13:16:32;;;;;;;0.63;0.63;;;35.80;49.70;;;;;;5015063;28;20033;-78
2021/06/29 13:18:59;;;;;;;1.05;0.95;;;35.80;49.30;;;;;;5032607;28;20024;-77
2021/06/29 13:21:31;;;;;;;2.05;1.38;;;35.90;50.10;;;;;;5032103;28;20028;-79
2021/06/29 13:24:03;;;;;;;2.10;1.35;;;36.10;49.70;;;;;;5032471;28;20124;-77
2021/06/29 13:26:30;;;;;;;1.17;0.57;;;36.20;49.20;;;;;;5032608;28;20492;-79
2021/06/29 13:28:59;;;;;;;1.23;1.13;;;36.00;49.30;;;;;;5031686;28;20120;-83
2021/06/29 13:31:39;;;;;;;0.30;0.30;;;36.20;49.60;;;;;;5032381;28;20029;-80
2021/06/29 13:34:17;;;;;;;1.65;0.73;;;36.20;48.20;;;;;;5014380;28;20527;-80
2021/06/29 13:36:43;;;;;;;1.88;1.08;;;36.00;47.70;;;;;;5031982;28;20072;-79
2021/06/29 13:39:08;;;;;;;1.50;1.40;;;36.40;48.50;;;;;;5031965;28;20056;-82
2021/06/29 13:41:39;;;;;;;3.30;1.55;;;36.60;48.50;;;;;;5014165;28;20029;-84
2021/06/29 13:44:13;;;;;;;2.47;1.02;;;36.80;48.50;;;;;;5031530;28;20033;-81
2021/06/29 13:46:39;;;;;;;1.58;1.15;;;36.80;47.90;;;;;;5014343;28;20033;-81
2021/06/29 13:49:20;;;;;;;0.65;0.47;;;36.90;48.80;;;;;;5031633;28;20038;-80
2021/06/29 13:51:47;;;;;;;2.47;1.02;;;37.30;47.90;;;;;;5031492;28;20033;-80
2021/06/29 13:54:23;;;;;;;0.47;0.47;;;37.50;48.30;;;;;;5031811;28;20013;-79
2021/06/29 13:56:50;;;;;;;0.55;0.40;;;37.30;48.80;;;;;;5014098;28;20698;-81
2021/06/29 13:59:40;;;;;;;1.33;0.85;;;37.10;49.00;;;;;;5011448;28;20104;-81
2021/06/29 14:02:06;;;;;;;0.63;0.55;;;37.50;50.00;;;;;;4994206;28;20025;-79
2021/06/29 14:04:53;;;;;;;1.85;1.60;;;37.60;48.90;;;;;;5006549;28;20072;-79
2021/06/29 14:07:20;;;;;;;1.35;1.25;;;37.70;49.40;;;;;;4992118;28;20415;-78
2021/06/29 14:09:47;;;;;;;0.80;0.38;;;38.00;49.10;;;;;;4975371;28;20438;-79
2021/06/29 14:12:26;;;;;;;0.20;0.20;;;37.90;47.50;;;;;;4965718;28;20117;-81
2021/06/29 14:15:11;;;;;;;2.10;1.00;;;37.30;47.50;;;;;;5031872;28;20052;-78
2021/06/29 14:17:37;;;;;;;1.90;1.13;;;37.50;48.50;;;;;;5031633;28;20183;-78
2021/06/29 14:20:05;;;;;;;0.73;0.50;;;37.70;48.40;;;;;;5031776;28;20061;-83
2021/06/29 14:22:31;;;;;;;0.40;0.35;;;37.80;47.20;;;;;;5023042;28;20030;-78
2021/06/29 14:24:56;;;;;;;2.63;0.85;;;38.30;48.00;;;;;;5009200;28;20042;-82
2021/06/29 14:27:22;;;;;;;2.47;1.35;;;38.60;46.70;;;;;;5011466;28;20634;-84
2021/06/29 14:29:48;;;;;;;1.75;1.58;;;38.10;46.70;;;;;;4992797;28;20486;-77
2021/06/29 14:32:14;;;;;;;1.27;0.40;;;38.30;47.90;;;;;;5011230;28;20089;-80
2021/06/29 14:34:40;;;;;;;3.33;2.67;;;38.10;47.80;;;;;;5011543;28;20056;-78
2021/06/29 14:37:06;;;;;;;0.70;0.68;;;38.10;46.80;;;;;;5011796;28;20050;-81
2021/06/29 14:39:32;;;;;;;0.52;0.50;;;38.80;47.90;;;;;;5011526;28;20024;-78
2021/06/29 14:41:58;;;;;;;0.47;0.47;;;38.30;46.40;;;;;;5011270;28;20033;-80
2021/06/29 14:44:24;;;;;;;1.30;1.05;;;38.30;46.50;;;;;;5011392;28;20536;-78
2021/06/29 14:46:49;;;;;;;1.10;0.65;;;38.30;46.80;;;;;;5011365;28;20026;-80
2021/06/29 14:49:15;;;;;;;1.05;0.77;;;38.40;46.90;;;;;;5011224;28;20046;-76
2021/06/29 14:51:41;;;;;;;5.15;2.92;;;38.70;47.50;;;;;;5011156;28;20029;-78
2021/06/29 14:54:07;;;;;;;0.40;0.38;;;39.00;48.10;;;;;;5011092;28;20425;-77
2021/06/29 14:56:33;;;;;;;0.63;0.60;;;39.10;47.20;;;;;;5011363;28;20460;-79
2021/06/29 14:59:03;;;;;;;0.80;0.73;;;39.20;46.40;;;;;;5011380;28;20021;-77
2021/06/29 15:01:29;;;;;;;1.50;0.85;;;39.20;46.70;;;;;;5011267;28;20026;-77
2021/06/29 15:03:55;;;;;;;0.70;0.70;;;39.40;46.70;;;;;;5011179;28;20029;-79
2021/06/29 15:06:21;;;;;;;0.35;0.35;;;39.10;47.00;;;;;;5011357;28;20084;-80
2021/06/29 15:08:47;;;;;;;3.17;1.45;;;38.90;47.20;;;;;;4993875;28;20359;-78
2021/06/29 15:11:20;;;;;;;3.47;1.70;;;38.50;46.40;;;;;;5010756;28;20540;-79
2021/06/29 15:13:46;;;;;;;1.35;0.98;;;38.70;47.30;;;;;;5008256;28;20089;-80
2021/06/29 15:16:13;;;;;;;2.10;1.65;;;39.00;47.50;;;;;;5001447;28;20121;-77
2021/06/29 15:18:38;;;;;;;9.60;4.75;;;39.10;46.80;;;;;;5012286;28;20045;-78
2021/06/29 15:21:04;;;;;;;26.58;19.60;;;38.90;46.70;;;;;;5015022;28;20440;-78
2021/06/29 15:23:30;;;;;;;56.83;37.10;;;39.00;48.40;;;;;;5014924;28;20029;-78
2021/06/29 15:25:56;;;;;;;28.33;18.50;;;39.30;47.40;;;;;;5014784;28;20045;-77
2021/06/29 15:28:22;;;;;;;9.23;6.68;;;39.70;47.90;;;;;;5014588;28;20524;-78
2021/06/29 15:30:48;;;;;;;1.92;1.52;;;40.00;48.40;;;;;;5006595;28;20640;-80
2021/06/29 15:33:13;;;;;;;1.75;1.40;;;39.90;46.90;;;;;;5004514;28;20473;-80
2021/06/29 15:35:40;;;;;;;1.67;1.00;;;40.10;47.90;;;;;;5005213;28;20470;-79
2021/06/29 15:38:06;;;;;;;0.70;0.60;;;39.60;47.20;;;;;;5003288;28;20441;-79
2021/06/29 15:40:34;;;;;;;4.55;3.17;;;39.40;46.90;;;;;;5004737;28;20449;-77
2021/06/29 15:43:00;;;;;;;18.13;8.57;;;39.30;47.80;;;;;;5004625;28;20098;-76
2021/06/29 15:45:27;;;;;;;18.70;11.85;;;39.30;47.50;;;;;;5003511;28;20128;-77